Saturday, September 22, 2018, 10:56 PM EDT
Back to Local

KPTW, Pottstown Limerick Airport

Location: Royersford, PA, United States Lat: 40.233
Local Time: 10:56 PM EDT ( 2:56 GMT) Lon: -75.55
Time Zone: US/Eastern Elev: 291 ft

Show me the last for .
Show Coded

Time T Td Feel RH Dir Speed Gust Alt SLP Vis Weather Sky Remarks
2018-09-22 21:54 57 54 - 89 320° 3 - 30.22 30.21 10 CLR None
2018-09-22 20:54 58 55 - 90 - Calm - 30.22 30.21 10 CLR None
2018-09-22 19:54 59 54 - 83 - Calm - 30.21 30.19 10 CLR 6-hr Min Temp (8pm): 59.0°F
6-hr Max Temp (8pm): 64.9°F
2018-09-22 18:54 61 52 - 72 - Calm - 30.20 30.19 10 CLR None
2018-09-22 17:54 63 52 - 67 320° 3 - 30.20 30.19 10 CLR None
2018-09-22 16:54 63 51 - 65 300° 6 - 30.20 30.19 10 CLR None
2018-09-22 15:54 63 50 - 62 340° 8 - 30.19 30.18 10 CLR None
2018-09-22 14:54 64 51 - 62 320° 8 - 30.19 30.18 10 CLR None
2018-09-22 13:54 64 51 - 62 340° 7 - 30.19 30.17 10 CLR 6-hr Min Temp (2pm): 64.0°F
6-hr Max Temp (2pm): 70.0°F
2018-09-22 12:54 66 52 - 60 360° 10 - 30.18 30.17 10 CLR None
2018-09-22 11:54 67 51 - 56 340° 10 16 30.17 30.16 10 CLR None
2018-09-22 10:54 69 55 - 60 10° 9 - 30.16 30.15 10 CLR None
2018-09-22 09:54 69 56 - 62 10° 12 - 30.15 30.14 10 CLR None
2018-09-22 08:54 69 58 - 67 340° 8 - 30.13 30.12 10 CLR None
2018-09-22 08:03 70 61 - 73 350° 9 - 30.11 - 9 SCT018 None
2018-09-22 07:54 69 61 - 75 350° 10 - 30.11 30.09 9 SCT018 BKN027 6-hr Precip Total (8am): 0.01"
24-hr Precip Total (8am): 0.01"
6-hr Min Temp (8am): 69.1°F
6-hr Max Temp (8am): 73.0°F
2018-09-22 06:54 70 69 - 96 Variable 3 - 30.07 30.05 7 CLR None
2018-09-22 05:54 70 70 - 100 - Calm - 30.04 30.03 7 FEW060 OVC075 None
2018-09-22 04:54 70 70 - 100 260° 3 - 30.02 30.00 7 FEW055 SCT065 BKN120 1-hr Precip Total: Trace
6-hr Precip Total (5am): 0.01"
2018-09-22 03:54 70 69 - 96 - Calm - 30.01 29.99 8 FEW013 SCT080 1-hr Precip Total: 0.01"
2018-09-22 03:42 71 69 76 93 220° 3 - 30.00 - 8 SCT015 BKN090 1-hr Precip Total: 0.01"
2018-09-22 03:34 71 69 76 93 Variable 3 - 30.00 - 9 BKN015 BKN047 BKN100 1-hr Precip Total: 0.01"
2018-09-22 02:54 72 69 76 90 Variable 5 - 30.01 30.00 7 -RA FEW080 BKN100 OVC120 1-hr Precip Total: Trace
2018-09-22 02:29 73 70 77 90 240° 3 - 30.00 - 8 -RA SCT014 BKN070 OVC095 1-hr Precip Total: Trace
2018-09-22 01:54 73 70 77 90 230° 9 16 30.01 29.99 8 OVC015 6-hr Min Temp (2am): 71.1°F
6-hr Max Temp (2am): 73.0°F
2018-09-22 00:54 72 69 76 90 220° 10 - 30.00 29.98 9 OVC018 24-hr Min Temp (1am): 64.0°F
24-hr Max Temp (1am): 73.0°F
2018-09-21 23:54 71 67 76 86 - Calm - 30.02 30.01 10 BKN018 OVC024 None

Support USWX by starting your Amazon purchase here.